sensor_id;sensor_type;location;lat;lon;timestamp;P1;durP1;ratioP1;P2;durP2;ratioP2
9436;SDS011;4757;59.334;18.034;2023-05-17T00:01:14;5.73;;;5.23;;
9436;SDS011;4757;59.334;18.034;2023-05-17T00:03:41;7.93;;;6.17;;
9436;SDS011;4757;59.334;18.034;2023-05-17T00:06:08;7.13;;;6.43;;
9436;SDS011;4757;59.334;18.034;2023-05-17T00:08:35;8.50;;;6.40;;
9436;SDS011;4757;59.334;18.034;2023-05-17T00:11:02;8.20;;;5.90;;
9436;SDS011;4757;59.334;18.034;2023-05-17T00:13:29;7.73;;;6.83;;
9436;SDS011;4757;59.334;18.034;2023-05-17T00:15:56;6.67;;;6.17;;
9436;SDS011;4757;59.334;18.034;2023-05-17T00:18:23;6.43;;;5.93;;
9436;SDS011;4757;59.334;18.034;2023-05-17T00:20:50;6.87;;;5.83;;
9436;SDS011;4757;59.334;18.034;2023-05-17T00:23:17;6.40;;;5.80;;
9436;SDS011;4757;59.334;18.034;2023-05-17T00:25:44;7.53;;;5.97;;
9436;SDS011;4757;59.334;18.034;2023-05-17T00:28:12;15.53;;;6.83;;
9436;SDS011;4757;59.334;18.034;2023-05-17T00:30:38;6.40;;;5.87;;
9436;SDS011;4757;59.334;18.034;2023-05-17T00:33:06;7.03;;;6.40;;
9436;SDS011;4757;59.334;18.034;2023-05-17T00:35:33;7.53;;;6.13;;
9436;SDS011;4757;59.334;18.034;2023-05-17T00:38:00;7.10;;;6.33;;
9436;SDS011;4757;59.334;18.034;2023-05-17T00:40:27;9.73;;;6.33;;
9436;SDS011;4757;59.334;18.034;2023-05-17T00:42:55;6.23;;;5.70;;
9436;SDS011;4757;59.334;18.034;2023-05-17T00:45:22;6.67;;;5.93;;
9436;SDS011;4757;59.334;18.034;2023-05-17T00:47:49;6.60;;;5.93;;
9436;SDS011;4757;59.334;18.034;2023-05-17T00:50:16;7.17;;;6.00;;
9436;SDS011;4757;59.334;18.034;2023-05-17T00:52:44;6.27;;;5.77;;
9436;SDS011;4757;59.334;18.034;2023-05-17T00:55:11;7.53;;;6.20;;
9436;SDS011;4757;59.334;18.034;2023-05-17T00:57:38;6.60;;;5.97;;
9436;SDS011;4757;59.334;18.034;2023-05-17T01:00:06;6.63;;;6.07;;
9436;SDS011;4757;59.334;18.034;2023-05-17T01:02:34;6.03;;;5.57;;
9436;SDS011;4757;59.334;18.034;2023-05-17T01:05:01;7.10;;;6.07;;
9436;SDS011;4757;59.334;18.034;2023-05-17T01:07:28;6.63;;;6.03;;
9436;SDS011;4757;59.334;18.034;2023-05-17T01:09:57;6.37;;;5.77;;
9436;SDS011;4757;59.334;18.034;2023-05-17T01:17:52;7.53;;;5.63;;
9436;SDS011;4757;59.334;18.034;2023-05-17T01:20:25;6.33;;;5.67;;
9436;SDS011;4757;59.334;18.034;2023-05-17T01:28:59;7.03;;;6.33;;
9436;SDS011;4757;59.334;18.034;2023-05-17T01:31:27;6.10;;;5.63;;
9436;SDS011;4757;59.334;18.034;2023-05-17T01:33:56;7.23;;;6.57;;
9436;SDS011;4757;59.334;18.034;2023-05-17T01:36:24;6.27;;;5.77;;
9436;SDS011;4757;59.334;18.034;2023-05-17T01:38:52;6.60;;;6.10;;
9436;SDS011;4757;59.334;18.034;2023-05-17T01:41:26;7.37;;;5.90;;
9436;SDS011;4757;59.334;18.034;2023-05-17T01:43:59;6.90;;;6.30;;
9436;SDS011;4757;59.334;18.034;2023-05-17T01:46:41;6.53;;;5.93;;
9436;SDS011;4757;59.334;18.034;2023-05-17T01:49:23;6.17;;;5.70;;
9436;SDS011;4757;59.334;18.034;2023-05-17T01:54:34;6.63;;;6.03;;
9436;SDS011;4757;59.334;18.034;2023-05-17T01:57:04;6.47;;;5.87;;
9436;SDS011;4757;59.334;18.034;2023-05-17T01:59:33;11.17;;;6.77;;
9436;SDS011;4757;59.334;18.034;2023-05-17T02:02:03;6.57;;;6.03;;
9436;SDS011;4757;59.334;18.034;2023-05-17T02:04:34;7.17;;;6.47;;
9436;SDS011;4757;59.334;18.034;2023-05-17T02:07:02;6.63;;;6.03;;
9436;SDS011;4757;59.334;18.034;2023-05-17T02:09:29;5.83;;;5.33;;
9436;SDS011;4757;59.334;18.034;2023-05-17T02:11:56;6.47;;;5.97;;
9436;SDS011;4757;59.334;18.034;2023-05-17T02:14:23;5.77;;;5.30;;
9436;SDS011;4757;59.334;18.034;2023-05-17T02:16:50;8.10;;;5.47;;
9436;SDS011;4757;59.334;18.034;2023-05-17T02:19:17;5.83;;;5.33;;
9436;SDS011;4757;59.334;18.034;2023-05-17T02:21:44;6.73;;;5.27;;
9436;SDS011;4757;59.334;18.034;2023-05-17T02:24:11;7.20;;;5.67;;
9436;SDS011;4757;59.334;18.034;2023-05-17T02:26:38;6.77;;;5.93;;
9436;SDS011;4757;59.334;18.034;2023-05-17T02:29:08;5.50;;;5.10;;
9436;SDS011;4757;59.334;18.034;2023-05-17T02:31:38;6.33;;;5.80;;
9436;SDS011;4757;59.334;18.034;2023-05-17T02:34:05;6.37;;;5.83;;
9436;SDS011;4757;59.334;18.034;2023-05-17T02:36:32;5.30;;;4.90;;
9436;SDS011;4757;59.334;18.034;2023-05-17T02:38:59;6.97;;;6.00;;
9436;SDS011;4757;59.334;18.034;2023-05-17T02:41:26;6.00;;;5.47;;
9436;SDS011;4757;59.334;18.034;2023-05-17T02:43:53;6.20;;;5.10;;
9436;SDS011;4757;59.334;18.034;2023-05-17T02:46:20;6.20;;;5.70;;
9436;SDS011;4757;59.334;18.034;2023-05-17T02:48:47;5.93;;;5.40;;
9436;SDS011;4757;59.334;18.034;2023-05-17T02:51:14;6.43;;;5.83;;
9436;SDS011;4757;59.334;18.034;2023-05-17T02:53:41;5.53;;;5.03;;
9436;SDS011;4757;59.334;18.034;2023-05-17T02:56:08;5.63;;;5.23;;
9436;SDS011;4757;59.334;18.034;2023-05-17T02:58:35;5.77;;;5.37;;
9436;SDS011;4757;59.334;18.034;2023-05-17T03:01:02;5.50;;;5.10;;
9436;SDS011;4757;59.334;18.034;2023-05-17T03:03:29;7.23;;;5.63;;
9436;SDS011;4757;59.334;18.034;2023-05-17T03:06:00;6.20;;;5.30;;
9436;SDS011;4757;59.334;18.034;2023-05-17T03:08:28;6.10;;;5.30;;
9436;SDS011;4757;59.334;18.034;2023-05-17T03:10:55;5.73;;;5.13;;
9436;SDS011;4757;59.334;18.034;2023-05-17T03:13:22;5.93;;;5.43;;
9436;SDS011;4757;59.334;18.034;2023-05-17T03:15:49;5.30;;;4.90;;
9436;SDS011;4757;59.334;18.034;2023-05-17T03:18:16;5.73;;;5.13;;
9436;SDS011;4757;59.334;18.034;2023-05-17T03:20:43;5.77;;;5.27;;
9436;SDS011;4757;59.334;18.034;2023-05-17T03:23:10;5.50;;;5.00;;
9436;SDS011;4757;59.334;18.034;2023-05-17T03:25:37;6.17;;;5.70;;
9436;SDS011;4757;59.334;18.034;2023-05-17T03:28:04;5.77;;;5.20;;
9436;SDS011;4757;59.334;18.034;2023-05-17T03:30:31;5.67;;;5.10;;
9436;SDS011;4757;59.334;18.034;2023-05-17T03:32:58;5.20;;;4.80;;
9436;SDS011;4757;59.334;18.034;2023-05-17T03:35:25;6.20;;;4.97;;
9436;SDS011;4757;59.334;18.034;2023-05-17T03:37:53;4.80;;;4.50;;
9436;SDS011;4757;59.334;18.034;2023-05-17T03:40:20;5.33;;;4.83;;
9436;SDS011;4757;59.334;18.034;2023-05-17T03:42:47;6.00;;;5.50;;
9436;SDS011;4757;59.334;18.034;2023-05-17T03:45:14;6.60;;;4.70;;
9436;SDS011;4757;59.334;18.034;2023-05-17T03:47:41;6.67;;;4.47;;
9436;SDS011;4757;59.334;18.034;2023-05-17T03:50:09;5.33;;;4.60;;
9436;SDS011;4757;59.334;18.034;2023-05-17T03:52:36;5.60;;;5.07;;
9436;SDS011;4757;59.334;18.034;2023-05-17T03:55:03;5.73;;;5.17;;
9436;SDS011;4757;59.334;18.034;2023-05-17T03:57:30;5.50;;;5.00;;
9436;SDS011;4757;59.334;18.034;2023-05-17T03:59:57;5.30;;;4.90;;
9436;SDS011;4757;59.334;18.034;2023-05-17T04:02:24;5.73;;;5.03;;
9436;SDS011;4757;59.334;18.034;2023-05-17T04:04:51;5.53;;;5.03;;
9436;SDS011;4757;59.334;18.034;2023-05-17T04:07:19;6.67;;;5.40;;
9436;SDS011;4757;59.334;18.034;2023-05-17T04:09:46;5.07;;;4.67;;
9436;SDS011;4757;59.334;18.034;2023-05-17T04:12:13;6.53;;;4.67;;
9436;SDS011;4757;59.334;18.034;2023-05-17T04:14:40;6.80;;;4.50;;
9436;SDS011;4757;59.334;18.034;2023-05-17T04:17:07;5.17;;;4.67;;
9436;SDS011;4757;59.334;18.034;2023-05-17T04:19:34;5.47;;;5.03;;
9436;SDS011;4757;59.334;18.034;2023-05-17T04:22:01;6.40;;;4.97;;
9436;SDS011;4757;59.334;18.034;2023-05-17T04:24:28;5.00;;;4.60;;
9436;SDS011;4757;59.334;18.034;2023-05-17T04:26:56;10.17;;;5.80;;
9436;SDS011;4757;59.334;18.034;2023-05-17T04:29:27;5.90;;;4.73;;
9436;SDS011;4757;59.334;18.034;2023-05-17T04:31:55;5.50;;;4.93;;
9436;SDS011;4757;59.334;18.034;2023-05-17T04:34:22;5.20;;;4.27;;
9436;SDS011;4757;59.334;18.034;2023-05-17T04:36:50;5.40;;;4.90;;
9436;SDS011;4757;59.334;18.034;2023-05-17T04:39:18;5.03;;;4.50;;
9436;SDS011;4757;59.334;18.034;2023-05-17T04:41:46;22.30;;;20.17;;
9436;SDS011;4757;59.334;18.034;2023-05-17T04:44:13;4.97;;;4.57;;
9436;SDS011;4757;59.334;18.034;2023-05-17T04:46:40;10.23;;;5.87;;
9436;SDS011;4757;59.334;18.034;2023-05-17T04:49:09;5.30;;;4.80;;
9436;SDS011;4757;59.334;18.034;2023-05-17T04:51:36;5.53;;;5.03;;
9436;SDS011;4757;59.334;18.034;2023-05-17T04:54:03;5.73;;;5.23;;
9436;SDS011;4757;59.334;18.034;2023-05-17T04:56:33;5.50;;;5.03;;
9436;SDS011;4757;59.334;18.034;2023-05-17T04:59:01;6.03;;;5.47;;
9436;SDS011;4757;59.334;18.034;2023-05-17T05:01:28;5.43;;;4.93;;
9436;SDS011;4757;59.334;18.034;2023-05-17T05:03:56;5.13;;;4.73;;
9436;SDS011;4757;59.334;18.034;2023-05-17T05:06:24;5.43;;;4.93;;
9436;SDS011;4757;59.334;18.034;2023-05-17T05:08:51;4.87;;;4.47;;
9436;SDS011;4757;59.334;18.034;2023-05-17T05:11:19;5.87;;;5.00;;
9436;SDS011;4757;59.334;18.034;2023-05-17T05:13:46;5.47;;;4.93;;
9436;SDS011;4757;59.334;18.034;2023-05-17T05:16:13;4.70;;;4.30;;
9436;SDS011;4757;59.334;18.034;2023-05-17T05:18:40;5.93;;;4.90;;
9436;SDS011;4757;59.334;18.034;2023-05-17T05:21:07;6.60;;;5.17;;
9436;SDS011;4757;59.334;18.034;2023-05-17T05:23:34;6.33;;;4.63;;
9436;SDS011;4757;59.334;18.034;2023-05-17T05:26:01;5.70;;;5.00;;
9436;SDS011;4757;59.334;18.034;2023-05-17T05:28:28;7.53;;;5.53;;
9436;SDS011;4757;59.334;18.034;2023-05-17T05:30:58;6.17;;;4.63;;
9436;SDS011;4757;59.334;18.034;2023-05-17T05:33:26;9.13;;;5.60;;
9436;SDS011;4757;59.334;18.034;2023-05-17T05:35:53;7.47;;;5.13;;
9436;SDS011;4757;59.334;18.034;2023-05-17T05:38:20;5.53;;;5.03;;
9436;SDS011;4757;59.334;18.034;2023-05-17T05:40:48;5.30;;;4.80;;
9436;SDS011;4757;59.334;18.034;2023-05-17T05:43:15;5.50;;;4.97;;
9436;SDS011;4757;59.334;18.034;2023-05-17T05:45:42;8.50;;;5.27;;
9436;SDS011;4757;59.334;18.034;2023-05-17T05:48:12;6.20;;;5.60;;
9436;SDS011;4757;59.334;18.034;2023-05-17T05:50:40;7.30;;;5.57;;
9436;SDS011;4757;59.334;18.034;2023-05-17T05:53:09;6.70;;;5.80;;
9436;SDS011;4757;59.334;18.034;2023-05-17T05:55:44;7.13;;;5.77;;
9436;SDS011;4757;59.334;18.034;2023-05-17T05:58:12;7.37;;;5.43;;
9436;SDS011;4757;59.334;18.034;2023-05-17T06:00:39;5.87;;;5.23;;
9436;SDS011;4757;59.334;18.034;2023-05-17T06:03:06;7.63;;;6.00;;
9436;SDS011;4757;59.334;18.034;2023-05-17T06:05:33;4.23;;;3.83;;
9436;SDS011;4757;59.334;18.034;2023-05-17T06:08:00;6.00;;;5.50;;
9436;SDS011;4757;59.334;18.034;2023-05-17T06:10:27;6.60;;;4.27;;
9436;SDS011;4757;59.334;18.034;2023-05-17T06:12:55;4.53;;;3.53;;
9436;SDS011;4757;59.334;18.034;2023-05-17T06:15:22;10.13;;;4.67;;
9436;SDS011;4757;59.334;18.034;2023-05-17T06:17:49;7.37;;;5.10;;
9436;SDS011;4757;59.334;18.034;2023-05-17T06:20:16;4.93;;;3.77;;
9436;SDS011;4757;59.334;18.034;2023-05-17T06:22:43;3.73;;;3.43;;
9436;SDS011;4757;59.334;18.034;2023-05-17T06:25:10;4.43;;;3.40;;
9436;SDS011;4757;59.334;18.034;2023-05-17T06:27:37;4.40;;;4.00;;
9436;SDS011;4757;59.334;18.034;2023-05-17T06:30:05;3.77;;;3.47;;
9436;SDS011;4757;59.334;18.034;2023-05-17T06:32:33;5.23;;;4.13;;
9436;SDS011;4757;59.334;18.034;2023-05-17T06:35:01;5.57;;;4.37;;
9436;SDS011;4757;59.334;18.034;2023-05-17T06:37:28;4.13;;;3.80;;
9436;SDS011;4757;59.334;18.034;2023-05-17T06:40:04;4.27;;;3.90;;
9436;SDS011;4757;59.334;18.034;2023-05-17T06:42:35;4.50;;;4.13;;
9436;SDS011;4757;59.334;18.034;2023-05-17T06:45:02;5.07;;;3.80;;
9436;SDS011;4757;59.334;18.034;2023-05-17T06:47:30;4.43;;;4.03;;
9436;SDS011;4757;59.334;18.034;2023-05-17T06:49:57;4.27;;;3.87;;
9436;SDS011;4757;59.334;18.034;2023-05-17T06:52:24;3.43;;;3.17;;
9436;SDS011;4757;59.334;18.034;2023-05-17T06:54:51;3.77;;;2.87;;
9436;SDS011;4757;59.334;18.034;2023-05-17T06:57:18;3.10;;;2.90;;
9436;SDS011;4757;59.334;18.034;2023-05-17T06:59:46;2.90;;;2.47;;
9436;SDS011;4757;59.334;18.034;2023-05-17T07:02:13;2.97;;;2.70;;
9436;SDS011;4757;59.334;18.034;2023-05-17T07:04:40;3.17;;;2.87;;
9436;SDS011;4757;59.334;18.034;2023-05-17T07:07:08;2.93;;;2.70;;
9436;SDS011;4757;59.334;18.034;2023-05-17T07:09:35;3.50;;;3.20;;
9436;SDS011;4757;59.334;18.034;2023-05-17T07:12:03;3.73;;;3.17;;
9436;SDS011;4757;59.334;18.034;2023-05-17T07:14:31;2.83;;;2.63;;
9436;SDS011;4757;59.334;18.034;2023-05-17T07:16:58;3.40;;;2.73;;
9436;SDS011;4757;59.334;18.034;2023-05-17T07:19:26;3.10;;;2.63;;
9436;SDS011;4757;59.334;18.034;2023-05-17T07:21:53;2.90;;;2.70;;
9436;SDS011;4757;59.334;18.034;2023-05-17T07:24:20;3.37;;;2.90;;
9436;SDS011;4757;59.334;18.034;2023-05-17T07:26:47;3.43;;;3.13;;
9436;SDS011;4757;59.334;18.034;2023-05-17T07:29:17;2.60;;;2.40;;
9436;SDS011;4757;59.334;18.034;2023-05-17T07:31:44;2.93;;;2.63;;
9436;SDS011;4757;59.334;18.034;2023-05-17T07:34:12;3.70;;;2.93;;
9436;SDS011;4757;59.334;18.034;2023-05-17T07:36:39;4.53;;;3.00;;
9436;SDS011;4757;59.334;18.034;2023-05-17T07:39:06;3.53;;;3.20;;
9436;SDS011;4757;59.334;18.034;2023-05-17T07:41:34;3.70;;;2.77;;
9436;SDS011;4757;59.334;18.034;2023-05-17T07:44:02;2.77;;;2.57;;
9436;SDS011;4757;59.334;18.034;2023-05-17T07:46:29;3.97;;;2.53;;
9436;SDS011;4757;59.334;18.034;2023-05-17T07:48:56;3.07;;;2.27;;
9436;SDS011;4757;59.334;18.034;2023-05-17T07:51:24;2.30;;;1.47;;
9436;SDS011;4757;59.334;18.034;2023-05-17T07:53:51;2.43;;;1.57;;
9436;SDS011;4757;59.334;18.034;2023-05-17T07:56:18;1.40;;;1.30;;
9436;SDS011;4757;59.334;18.034;2023-05-17T07:58:45;2.03;;;1.80;;
9436;SDS011;4757;59.334;18.034;2023-05-17T08:01:13;2.13;;;1.40;;
9436;SDS011;4757;59.334;18.034;2023-05-17T08:03:39;2.17;;;1.30;;
9436;SDS011;4757;59.334;18.034;2023-05-17T08:06:14;1.90;;;1.80;;
9436;SDS011;4757;59.334;18.034;2023-05-17T08:08:42;2.37;;;1.90;;
9436;SDS011;4757;59.334;18.034;2023-05-17T08:11:10;1.70;;;1.60;;
9436;SDS011;4757;59.334;18.034;2023-05-17T08:13:38;3.00;;;1.50;;
9436;SDS011;4757;59.334;18.034;2023-05-17T08:16:05;2.90;;;1.77;;
9436;SDS011;4757;59.334;18.034;2023-05-17T08:18:40;1.60;;;1.50;;
9436;SDS011;4757;59.334;18.034;2023-05-17T08:21:09;1.50;;;1.40;;
9436;SDS011;4757;59.334;18.034;2023-05-17T08:23:37;1.50;;;1.40;;
9436;SDS011;4757;59.334;18.034;2023-05-17T08:26:06;1.60;;;1.43;;
9436;SDS011;4757;59.334;18.034;2023-05-17T08:28:33;2.17;;;1.50;;
9436;SDS011;4757;59.334;18.034;2023-05-17T08:31:00;3.43;;;1.80;;
9436;SDS011;4757;59.334;18.034;2023-05-17T08:33:29;2.00;;;1.60;;
9436;SDS011;4757;59.334;18.034;2023-05-17T08:35:56;1.60;;;1.50;;
9436;SDS011;4757;59.334;18.034;2023-05-17T08:38:26;1.63;;;1.53;;
9436;SDS011;4757;59.334;18.034;2023-05-17T08:40:53;5.03;;;1.70;;
9436;SDS011;4757;59.334;18.034;2023-05-17T08:43:22;1.50;;;1.40;;
9436;SDS011;4757;59.334;18.034;2023-05-17T08:45:53;1.97;;;1.50;;
9436;SDS011;4757;59.334;18.034;2023-05-17T08:48:24;2.73;;;1.83;;
9436;SDS011;4757;59.334;18.034;2023-05-17T08:50:53;1.83;;;1.30;;
9436;SDS011;4757;59.334;18.034;2023-05-17T08:53:21;1.50;;;1.40;;
9436;SDS011;4757;59.334;18.034;2023-05-17T08:55:49;3.20;;;1.70;;
9436;SDS011;4757;59.334;18.034;2023-05-17T08:58:18;5.53;;;1.70;;
9436;SDS011;4757;59.334;18.034;2023-05-17T09:00:48;4.50;;;1.47;;
9436;SDS011;4757;59.334;18.034;2023-05-17T09:03:17;6.10;;;1.70;;
9436;SDS011;4757;59.334;18.034;2023-05-17T09:05:45;1.30;;;1.20;;
9436;SDS011;4757;59.334;18.034;2023-05-17T09:08:12;1.70;;;1.30;;
9436;SDS011;4757;59.334;18.034;2023-05-17T09:10:40;5.63;;;1.30;;
9436;SDS011;4757;59.334;18.034;2023-05-17T09:13:09;1.33;;;1.07;;
9436;SDS011;4757;59.334;18.034;2023-05-17T09:15:41;4.80;;;1.43;;
9436;SDS011;4757;59.334;18.034;2023-05-17T09:18:10;2.40;;;1.70;;
9436;SDS011;4757;59.334;18.034;2023-05-17T09:20:48;1.40;;;1.23;;
9436;SDS011;4757;59.334;18.034;2023-05-17T09:23:18;4.90;;;1.33;;
9436;SDS011;4757;59.334;18.034;2023-05-17T09:25:47;3.90;;;1.50;;
9436;SDS011;4757;59.334;18.034;2023-05-17T09:28:14;5.67;;;1.13;;
9436;SDS011;4757;59.334;18.034;2023-05-17T09:30:46;2.60;;;0.67;;
9436;SDS011;4757;59.334;18.034;2023-05-17T09:33:14;3.60;;;1.27;;
9436;SDS011;4757;59.334;18.034;2023-05-17T09:35:44;5.70;;;1.47;;
9436;SDS011;4757;59.334;18.034;2023-05-17T09:38:11;5.00;;;1.03;;
9436;SDS011;4757;59.334;18.034;2023-05-17T09:40:39;3.50;;;1.03;;
9436;SDS011;4757;59.334;18.034;2023-05-17T09:43:10;5.67;;;1.00;;
9436;SDS011;4757;59.334;18.034;2023-05-17T09:45:38;3.20;;;1.30;;
9436;SDS011;4757;59.334;18.034;2023-05-17T09:48:12;5.40;;;1.60;;
9436;SDS011;4757;59.334;18.034;2023-05-17T09:50:48;1.10;;;1.00;;
9436;SDS011;4757;59.334;18.034;2023-05-17T09:53:30;3.27;;;1.47;;
9436;SDS011;4757;59.334;18.034;2023-05-17T09:55:59;1.67;;;1.10;;
9436;SDS011;4757;59.334;18.034;2023-05-17T09:58:27;6.07;;;1.07;;
9436;SDS011;4757;59.334;18.034;2023-05-17T10:00:58;2.77;;;0.60;;
9436;SDS011;4757;59.334;18.034;2023-05-17T10:03:29;0.90;;;0.80;;
9436;SDS011;4757;59.334;18.034;2023-05-17T10:06:02;0.60;;;0.60;;
9436;SDS011;4757;59.334;18.034;2023-05-17T10:08:32;0.77;;;0.70;;
9436;SDS011;4757;59.334;18.034;2023-05-17T10:11:18;0.93;;;0.60;;
9436;SDS011;4757;59.334;18.034;2023-05-17T10:13:51;1.80;;;1.00;;
9436;SDS011;4757;59.334;18.034;2023-05-17T10:16:27;1.07;;;0.90;;
9436;SDS011;4757;59.334;18.034;2023-05-17T10:18:55;1.40;;;1.30;;
9436;SDS011;4757;59.334;18.034;2023-05-17T10:21:22;4.43;;;1.07;;
9436;SDS011;4757;59.334;18.034;2023-05-17T10:23:50;1.60;;;1.50;;
9436;SDS011;4757;59.334;18.034;2023-05-17T10:26:18;2.50;;;1.00;;
9436;SDS011;4757;59.334;18.034;2023-05-17T10:28:46;2.93;;;1.00;;
9436;SDS011;4757;59.334;18.034;2023-05-17T10:31:17;2.50;;;1.70;;
9436;SDS011;4757;59.334;18.034;2023-05-17T10:33:46;1.80;;;1.70;;
9436;SDS011;4757;59.334;18.034;2023-05-17T10:36:17;7.40;;;1.90;;
9436;SDS011;4757;59.334;18.034;2023-05-17T10:38:45;6.13;;;2.67;;
9436;SDS011;4757;59.334;18.034;2023-05-17T10:41:13;3.87;;;1.57;;
9436;SDS011;4757;59.334;18.034;2023-05-17T10:43:42;0.93;;;0.90;;
9436;SDS011;4757;59.334;18.034;2023-05-17T10:46:11;2.93;;;2.37;;
9436;SDS011;4757;59.334;18.034;2023-05-17T10:48:42;4.80;;;1.20;;
9436;SDS011;4757;59.334;18.034;2023-05-17T10:51:10;1.47;;;1.17;;
9436;SDS011;4757;59.334;18.034;2023-05-17T10:56:30;2.40;;;2.13;;
9436;SDS011;4757;59.334;18.034;2023-05-17T11:12:26;1.83;;;1.40;;
9436;SDS011;4757;59.334;18.034;2023-05-17T11:15:16;2.27;;;1.17;;
9436;SDS011;4757;59.334;18.034;2023-05-17T11:22:57;2.33;;;1.00;;
9436;SDS011;4757;59.334;18.034;2023-05-17T11:25:31;0.80;;;0.80;;
9436;SDS011;4757;59.334;18.034;2023-05-17T11:28:08;0.80;;;0.80;;
9436;SDS011;4757;59.334;18.034;2023-05-17T11:30:45;1.80;;;0.80;;
9436;SDS011;4757;59.334;18.034;2023-05-17T11:33:19;2.57;;;1.20;;
9436;SDS011;4757;59.334;18.034;2023-05-17T11:36:14;1.23;;;0.90;;
9436;SDS011;4757;59.334;18.034;2023-05-17T11:38:48;1.77;;;0.93;;
9436;SDS011;4757;59.334;18.034;2023-05-17T11:41:26;2.53;;;0.77;;
9436;SDS011;4757;59.334;18.034;2023-05-17T11:43:54;2.10;;;0.90;;
9436;SDS011;4757;59.334;18.034;2023-05-17T11:46:22;1.60;;;0.87;;
9436;SDS011;4757;59.334;18.034;2023-05-17T11:48:50;3.13;;;1.10;;
9436;SDS011;4757;59.334;18.034;2023-05-17T11:51:18;3.37;;;1.70;;
9436;SDS011;4757;59.334;18.034;2023-05-17T11:53:50;0.83;;;0.80;;
9436;SDS011;4757;59.334;18.034;2023-05-17T11:56:21;1.90;;;0.83;;
9436;SDS011;4757;59.334;18.034;2023-05-17T11:59:07;1.27;;;1.10;;
9436;SDS011;4757;59.334;18.034;2023-05-17T12:01:42;5.47;;;1.57;;
9436;SDS011;4757;59.334;18.034;2023-05-17T12:04:11;1.97;;;1.00;;
9436;SDS011;4757;59.334;18.034;2023-05-17T12:06:40;0.70;;;0.70;;
9436;SDS011;4757;59.334;18.034;2023-05-17T12:09:10;1.07;;;1.03;;
9436;SDS011;4757;59.334;18.034;2023-05-17T12:11:43;1.10;;;1.00;;
9436;SDS011;4757;59.334;18.034;2023-05-17T12:14:13;1.50;;;1.10;;
9436;SDS011;4757;59.334;18.034;2023-05-17T12:16:52;0.70;;;0.70;;
9436;SDS011;4757;59.334;18.034;2023-05-17T12:19:22;3.10;;;1.07;;
9436;SDS011;4757;59.334;18.034;2023-05-17T12:21:51;1.20;;;1.00;;
9436;SDS011;4757;59.334;18.034;2023-05-17T12:24:18;2.40;;;1.17;;
9436;SDS011;4757;59.334;18.034;2023-05-17T12:26:45;1.83;;;1.27;;
9436;SDS011;4757;59.334;18.034;2023-05-17T12:29:17;1.30;;;0.90;;
9436;SDS011;4757;59.334;18.034;2023-05-17T12:31:47;1.80;;;0.60;;
9436;SDS011;4757;59.334;18.034;2023-05-17T12:34:16;0.87;;;0.80;;
9436;SDS011;4757;59.334;18.034;2023-05-17T12:36:44;0.67;;;0.67;;
9436;SDS011;4757;59.334;18.034;2023-05-17T12:39:12;1.83;;;1.03;;
9436;SDS011;4757;59.334;18.034;2023-05-17T12:41:40;1.07;;;1.00;;
9436;SDS011;4757;59.334;18.034;2023-05-17T12:44:08;2.13;;;1.30;;
9436;SDS011;4757;59.334;18.034;2023-05-17T12:46:41;1.40;;;1.27;;
9436;SDS011;4757;59.334;18.034;2023-05-17T12:49:09;1.27;;;1.07;;
9436;SDS011;4757;59.334;18.034;2023-05-17T12:51:44;1.17;;;0.80;;
9436;SDS011;4757;59.334;18.034;2023-05-17T12:54:13;1.67;;;0.87;;
9436;SDS011;4757;59.334;18.034;2023-05-17T12:56:43;0.80;;;0.80;;
9436;SDS011;4757;59.334;18.034;2023-05-17T13:01:56;1.17;;;0.90;;
9436;SDS011;4757;59.334;18.034;2023-05-17T13:04:30;0.80;;;0.80;;
9436;SDS011;4757;59.334;18.034;2023-05-17T13:07:00;0.80;;;0.80;;
9436;SDS011;4757;59.334;18.034;2023-05-17T13:09:29;0.63;;;0.63;;
9436;SDS011;4757;59.334;18.034;2023-05-17T13:12:07;0.87;;;0.70;;
9436;SDS011;4757;59.334;18.034;2023-05-17T13:17:15;1.10;;;1.00;;
9436;SDS011;4757;59.334;18.034;2023-05-17T13:19:59;1.93;;;1.60;;
9436;SDS011;4757;59.334;18.034;2023-05-17T13:22:27;3.37;;;1.13;;
9436;SDS011;4757;59.334;18.034;2023-05-17T13:24:57;1.83;;;1.53;;
9436;SDS011;4757;59.334;18.034;2023-05-17T13:27:27;4.20;;;3.87;;
9436;SDS011;4757;59.334;18.034;2023-05-17T13:29:54;1.03;;;0.90;;
9436;SDS011;4757;59.334;18.034;2023-05-17T13:32:21;3.37;;;2.80;;
9436;SDS011;4757;59.334;18.034;2023-05-17T13:34:51;0.60;;;0.60;;
9436;SDS011;4757;59.334;18.034;2023-05-17T13:37:18;0.40;;;0.40;;
9436;SDS011;4757;59.334;18.034;2023-05-17T13:39:46;0.60;;;0.60;;
9436;SDS011;4757;59.334;18.034;2023-05-17T13:42:13;4.53;;;4.07;;
9436;SDS011;4757;59.334;18.034;2023-05-17T13:44:40;0.90;;;0.70;;
9436;SDS011;4757;59.334;18.034;2023-05-17T13:47:07;1.70;;;0.90;;
9436;SDS011;4757;59.334;18.034;2023-05-17T13:49:34;0.57;;;0.57;;
9436;SDS011;4757;59.334;18.034;2023-05-17T13:52:02;0.63;;;0.63;;
9436;SDS011;4757;59.334;18.034;2023-05-17T13:54:34;1.00;;;0.70;;
9436;SDS011;4757;59.334;18.034;2023-05-17T13:57:01;0.57;;;0.57;;
9436;SDS011;4757;59.334;18.034;2023-05-17T13:59:29;1.70;;;0.67;;
9436;SDS011;4757;59.334;18.034;2023-05-17T14:01:57;0.80;;;0.80;;
9436;SDS011;4757;59.334;18.034;2023-05-17T14:04:24;0.80;;;0.80;;
9436;SDS011;4757;59.334;18.034;2023-05-17T14:06:51;1.00;;;0.97;;
9436;SDS011;4757;59.334;18.034;2023-05-17T14:09:20;1.50;;;1.27;;
9436;SDS011;4757;59.334;18.034;2023-05-17T14:11:47;1.57;;;1.30;;
9436;SDS011;4757;59.334;18.034;2023-05-17T14:14:14;3.20;;;0.87;;
9436;SDS011;4757;59.334;18.034;2023-05-17T14:16:41;0.67;;;0.67;;
9436;SDS011;4757;59.334;18.034;2023-05-17T14:19:08;2.67;;;1.00;;
9436;SDS011;4757;59.334;18.034;2023-05-17T14:21:36;1.27;;;1.10;;
9436;SDS011;4757;59.334;18.034;2023-05-17T14:24:03;0.70;;;0.70;;
9436;SDS011;4757;59.334;18.034;2023-05-17T14:26:30;0.77;;;0.77;;
9436;SDS011;4757;59.334;18.034;2023-05-17T14:28:57;0.73;;;0.73;;
9436;SDS011;4757;59.334;18.034;2023-05-17T14:31:24;0.60;;;0.60;;
9436;SDS011;4757;59.334;18.034;2023-05-17T14:33:53;1.30;;;1.20;;
9436;SDS011;4757;59.334;18.034;2023-05-17T14:36:20;1.17;;;0.77;;
9436;SDS011;4757;59.334;18.034;2023-05-17T14:38:47;1.47;;;0.70;;
9436;SDS011;4757;59.334;18.034;2023-05-17T14:41:15;1.50;;;1.00;;
9436;SDS011;4757;59.334;18.034;2023-05-17T14:43:43;1.90;;;1.00;;
9436;SDS011;4757;59.334;18.034;2023-05-17T14:46:10;1.57;;;1.00;;
9436;SDS011;4757;59.334;18.034;2023-05-17T14:48:37;0.80;;;0.70;;
9436;SDS011;4757;59.334;18.034;2023-05-17T14:51:04;0.90;;;0.90;;
9436;SDS011;4757;59.334;18.034;2023-05-17T14:53:32;1.20;;;1.10;;
9436;SDS011;4757;59.334;18.034;2023-05-17T14:55:59;1.10;;;0.93;;
9436;SDS011;4757;59.334;18.034;2023-05-17T14:58:27;1.47;;;1.00;;
9436;SDS011;4757;59.334;18.034;2023-05-17T15:00:54;1.93;;;0.87;;
9436;SDS011;4757;59.334;18.034;2023-05-17T15:03:31;1.00;;;0.90;;
9436;SDS011;4757;59.334;18.034;2023-05-17T15:05:59;0.87;;;0.70;;
9436;SDS011;4757;59.334;18.034;2023-05-17T15:08:29;1.03;;;0.73;;
9436;SDS011;4757;59.334;18.034;2023-05-17T15:10:56;1.47;;;1.37;;
9436;SDS011;4757;59.334;18.034;2023-05-17T15:13:24;1.30;;;0.80;;
9436;SDS011;4757;59.334;18.034;2023-05-17T15:15:52;2.57;;;0.90;;
9436;SDS011;4757;59.334;18.034;2023-05-17T15:18:19;0.63;;;0.60;;
9436;SDS011;4757;59.334;18.034;2023-05-17T15:20:47;1.33;;;1.00;;
9436;SDS011;4757;59.334;18.034;2023-05-17T15:23:14;1.00;;;1.00;;
9436;SDS011;4757;59.334;18.034;2023-05-17T15:25:41;1.17;;;0.77;;
9436;SDS011;4757;59.334;18.034;2023-05-17T15:28:08;1.87;;;1.00;;
9436;SDS011;4757;59.334;18.034;2023-05-17T15:30:36;0.90;;;0.90;;
9436;SDS011;4757;59.334;18.034;2023-05-17T15:33:02;2.60;;;1.00;;
9436;SDS011;4757;59.334;18.034;2023-05-17T15:35:30;1.20;;;1.10;;
9436;SDS011;4757;59.334;18.034;2023-05-17T15:37:57;2.47;;;1.00;;
9436;SDS011;4757;59.334;18.034;2023-05-17T15:40:27;0.93;;;0.90;;
9436;SDS011;4757;59.334;18.034;2023-05-17T15:42:54;2.33;;;1.00;;
9436;SDS011;4757;59.334;18.034;2023-05-17T15:45:21;0.97;;;0.90;;
9436;SDS011;4757;59.334;18.034;2023-05-17T15:47:48;1.10;;;1.00;;
9436;SDS011;4757;59.334;18.034;2023-05-17T15:50:16;1.03;;;0.97;;